Time;durP1;ratioP1;P1;durP2;ratioP2;P2;SDS_P1;SDS_P2;PMS_P1;PMS_P2;Temp;Humidity;BMP_temperature;BMP_pressure;BME280_temperature;BME280_humidity;BME280_pressure;Samples;Min_cycle;Max_cycle;Signal;HPM_P1;HPM_P2
2022/08/13 00:00:22;;;;;;;;;;;;;;;14.99;52.45;97208.25;6226018;28;19925;-65
2022/08/13 00:03:23;;;;;;;;;;;;;;;15.02;52.40;97218.59;6224552;28;19976;-66
2022/08/13 00:07:02;;;;;;;;;;;;;;;15.01;51.91;97201.03;6224909;28;20001;-65
2022/08/13 00:09:50;;;;;;;;;;;;;;;15.07;52.17;97211.13;6224753;28;19925;-65
2022/08/13 00:12:59;;;;;;;;;;;;;;;15.07;52.38;97211.13;6224995;28;20403;-65
2022/08/13 00:16:01;;;;;;;;;;;;;;;15.14;54.18;97212.34;6224923;28;20295;-65
2022/08/13 00:19:04;;;;;;;;;;;;;;;15.23;52.05;97210.81;6225463;28;19930;-65
2022/08/13 00:22:08;;;;;;;;;;;;;;;15.27;52.31;97217.53;6225411;28;19925;-66
2022/08/13 00:25:12;;;;;;;;;;;;;;;15.31;53.13;97212.84;6225447;28;19925;-65
2022/08/13 00:28:18;;;;;;;;;;;;;;;15.33;52.84;97210.91;6225314;28;20011;-65
2022/08/13 00:31:23;;;;;;;;;;;;;;;15.24;53.61;97208.00;6225036;28;20344;-66
2022/08/13 00:34:27;;;;;;;;;;;;;;;15.18;53.24;97211.16;6225193;28;20785;-65
2022/08/13 00:37:28;;;;;;;;;;;;;;;15.13;52.73;97204.53;6225110;28;19933;-66
2022/08/13 00:40:30;;;;;;;;;;;;;;;15.13;52.91;97210.66;6224002;28;20236;-65
2022/08/13 00:43:38;;;;;;;;;;;;;;;14.94;53.27;97211.22;6225086;28;19925;-65
2022/08/13 00:46:41;;;;;;;;;;;;;;;14.84;53.42;97212.91;6224357;28;19921;-65
2022/08/13 00:49:49;;;;;;;;;;;;;;;14.76;53.69;97213.50;6224789;28;20388;-66
2022/08/13 00:52:54;;;;;;;;;;;;;;;14.70;53.66;97218.44;6224978;28;19925;-65
2022/08/13 00:55:57;;;;;;;;;;;;;;;14.69;53.91;97222.03;6223951;28;20135;-65
2022/08/13 00:59:07;;;;;;;;;;;;;;;14.59;54.48;97222.72;6224456;28;19968;-65
2022/08/13 01:02:13;;;;;;;;;;;;;;;14.56;54.52;97222.97;6224585;28;19925;-65
2022/08/13 01:05:14;;;;;;;;;;;;;;;14.63;56.13;97225.13;6223467;28;19925;-65
2022/08/13 01:08:17;;;;;;;;;;;;;;;14.50;55.17;97222.56;6224116;28;19927;-66
2022/08/13 01:11:18;;;;;;;;;;;;;;;14.44;55.80;97210.63;6223952;28;20638;-65
2022/08/13 01:14:20;;;;;;;;;;;;;;;14.46;56.00;97221.06;6224401;28;19926;-66
2022/08/13 01:17:22;;;;;;;;;;;;;;;14.43;55.67;97216.00;6223043;28;19933;-65
2022/08/13 01:20:26;;;;;;;;;;;;;;;14.45;56.37;97214.09;6223887;28;19925;-65
2022/08/13 01:23:30;;;;;;;;;;;;;;;14.62;55.40;97213.72;6223324;28;20457;-66
2022/08/13 01:26:32;;;;;;;;;;;;;;;14.61;55.53;97209.38;6223419;28;20410;-65
2022/08/13 01:29:38;;;;;;;;;;;;;;;14.61;55.48;97209.38;6223843;28;19925;-65
2022/08/13 01:32:43;;;;;;;;;;;;;;;14.64;55.43;97209.16;6223910;28;19925;-66
2022/08/13 01:35:47;;;;;;;;;;;;;;;14.70;54.79;97206.03;6223339;28;19931;-65
2022/08/13 01:38:50;;;;;;;;;;;;;;;14.79;54.53;97207.13;6223614;28;19925;-65
2022/08/13 01:41:55;;;;;;;;;;;;;;;14.90;54.34;97203.66;6223707;28;19925;-65
2022/08/13 01:44:59;;;;;;;;;;;;;;;14.95;54.57;97202.34;6223396;28;19979;-66
2022/08/13 01:51:28;;;;;;;;;;;;;;;15.15;54.47;97202.59;6222978;28;19991;-66
2022/08/13 01:54:31;;;;;;;;;;;;;;;15.27;54.14;97202.47;6222481;28;19995;-65
2022/08/13 01:57:34;;;;;;;;;;;;;;;15.37;54.15;97201.72;6222271;28;19957;-66
2022/08/13 02:00:39;;;;;;;;;;;;;;;15.46;53.98;97206.34;6223086;28;19926;-65
2022/08/13 02:03:43;;;;;;;;;;;;;;;15.54;55.52;97200.41;6222243;28;19925;-66
2022/08/13 02:06:49;;;;;;;;;;;;;;;15.64;54.31;97199.53;6223210;28;19926;-65
2022/08/13 02:09:52;;;;;;;;;;;;;;;15.70;54.30;97204.38;6222005;28;19932;-65
2022/08/13 02:12:55;;;;;;;;;;;;;;;15.74;54.30;97197.06;6222666;28;19925;-65
2022/08/13 02:15:59;;;;;;;;;;;;;;;15.81;55.58;97189.44;6222774;28;19925;-65
2022/08/13 02:19:07;;;;;;;;;;;;;;;15.93;54.47;97197.22;6222736;28;19925;-65
2022/08/13 02:22:12;;;;;;;;;;;;;;;15.93;55.51;97191.91;6204846;28;19925;-65
2022/08/13 02:25:17;;;;;;;;;;;;;;;16.02;54.24;97186.81;6222552;28;20414;-65
2022/08/13 02:28:21;;;;;;;;;;;;;;;16.11;55.40;97184.28;6222538;28;20319;-65
2022/08/13 02:31:28;;;;;;;;;;;;;;;16.16;54.32;97184.75;6222244;28;19925;-65
2022/08/13 02:34:30;;;;;;;;;;;;;;;16.21;56.79;97186.16;6222191;28;19992;-64
2022/08/13 02:37:34;;;;;;;;;;;;;;;16.37;54.26;97186.59;6222494;28;19929;-65
2022/08/13 02:43:59;;;;;;;;;;;;;;;16.59;54.12;97193.59;6221078;28;20315;-65
2022/08/13 02:47:04;;;;;;;;;;;;;;;16.80;54.50;97190.97;6204812;28;19925;-66
2022/08/13 02:50:11;;;;;;;;;;;;;;;16.82;54.20;97195.19;6221877;28;19926;-66
2022/08/13 02:53:15;;;;;;;;;;;;;;;16.89;54.32;97190.16;6221340;28;20391;-66
2022/08/13 02:56:17;;;;;;;;;;;;;;;17.03;53.96;97189.84;6221808;28;19927;-66
2022/08/13 02:59:19;;;;;;;;;;;;;;;17.15;53.64;97198.56;6220924;28;19953;-67
2022/08/13 03:02:21;;;;;;;;;;;;;;;17.26;53.76;97197.63;6221080;28;19999;-65
2022/08/13 03:05:22;;;;;;;;;;;;;;;17.31;54.15;97189.28;6220826;28;19925;-64
2022/08/13 03:08:27;;;;;;;;;;;;;;;17.44;53.22;97185.41;6221877;28;19933;-65
2022/08/13 03:11:33;;;;;;;;;;;;;;;17.64;53.41;97188.97;6221841;28;19925;-65
2022/08/13 03:14:36;;;;;;;;;;;;;;;17.71;53.23;97183.94;6221719;28;19925;-65
2022/08/13 03:17:39;;;;;;;;;;;;;;;17.80;52.91;97188.47;6220888;28;19926;-65
2022/08/13 03:20:42;;;;;;;;;;;;;;;17.97;52.61;97180.78;6220913;28;19925;-66
2022/08/13 03:23:46;;;;;;;;;;;;;;;18.06;52.12;97177.28;6221524;28;19925;-65
2022/08/13 03:26:47;;;;;;;;;;;;;;;18.25;52.03;97176.47;6220503;28;19979;-66
2022/08/13 03:29:53;;;;;;;;;;;;;;;18.50;51.66;97177.75;6220545;28;20041;-65
2022/08/13 03:32:55;;;;;;;;;;;;;;;18.47;51.46;97175.34;6220310;28;19925;-65
2022/08/13 03:35:58;;;;;;;;;;;;;;;18.56;51.16;97177.16;6221389;28;19925;-65
2022/08/13 03:39:00;;;;;;;;;;;;;;;18.69;50.97;97168.88;6220748;28;19925;-66
2022/08/13 03:42:05;;;;;;;;;;;;;;;18.80;50.59;97177.59;6220785;28;20470;-65
2022/08/13 03:45:09;;;;;;;;;;;;;;;18.96;49.83;97176.16;6220231;28;19933;-66
2022/08/13 03:48:14;;;;;;;;;;;;;;;19.02;49.86;97164.88;6221095;28;19926;-65
2022/08/13 03:51:20;;;;;;;;;;;;;;;19.15;49.37;97176.09;6220981;28;19929;-65
2022/08/13 03:54:22;;;;;;;;;;;;;;;19.28;48.94;97168.59;6220896;28;20462;-65
2022/08/13 03:57:24;;;;;;;;;;;;;;;19.48;47.95;97177.38;6220552;28;19925;-65
2022/08/13 04:00:41;;;;;;;;;;;;;;;19.51;47.50;97170.91;6220584;28;19925;-66
2022/08/13 04:03:45;;;;;;;;;;;;;;;19.63;47.27;97174.19;6220139;28;20306;-65
2022/08/13 04:06:48;;;;;;;;;;;;;;;19.70;47.31;97176.16;6220908;28;19925;-65
2022/08/13 04:09:54;;;;;;;;;;;;;;;19.79;47.40;97179.78;6220040;28;20306;-66
2022/08/13 04:12:55;;;;;;;;;;;;;;;20.00;46.39;97170.63;6220346;28;19925;-65
2022/08/13 04:15:56;;;;;;;;;;;;;;;20.05;46.58;97169.19;6223203;28;19925;-66
2022/08/13 04:18:58;;;;;;;;;;;;;;;20.11;46.51;97167.75;6224488;28;19925;-66
2022/08/13 04:21:59;;;;;;;;;;;;;;;20.17;46.18;97156.44;6224698;28;19933;-66
2022/08/13 04:25:04;;;;;;;;;;;;;;;20.28;45.89;97158.06;6224568;28;19984;-66
2022/08/13 04:28:08;;;;;;;;;;;;;;;20.37;45.69;97159.81;6225287;28;19925;-66
2022/08/13 04:31:11;;;;;;;;;;;;;;;20.54;45.13;97158.97;6225180;28;19922;-65
2022/08/13 04:34:12;;;;;;;;;;;;;;;20.65;44.65;97162.41;6224163;28;19931;-66
2022/08/13 04:37:13;;;;;;;;;;;;;;;20.70;44.58;97152.09;6224361;28;20625;-65
2022/08/13 04:40:18;;;;;;;;;;;;;;;20.80;44.25;97150.97;6224837;28;19929;-65
2022/08/13 04:43:19;;;;;;;;;;;;;;;20.90;43.96;97148.22;6223853;28;20425;-65
2022/08/13 04:46:23;;;;;;;;;;;;;;;20.91;44.00;97152.56;6224789;28;20307;-65
2022/08/13 04:49:25;;;;;;;;;;;;;;;20.99;43.91;97149.94;6223944;28;19936;-66
2022/08/13 04:52:28;;;;;;;;;;;;;;;21.12;43.34;97146.84;6223685;28;19956;-64
2022/08/13 04:55:30;;;;;;;;;;;;;;;21.79;42.42;97146.13;6206350;28;20375;-66
2022/08/13 04:58:35;;;;;;;;;;;;;;;25.70;36.29;97160.69;6223392;28;19936;-65
2022/08/13 05:01:39;;;;;;;;;;;;;;;30.15;29.30;97156.38;6224516;28;20414;-65
2022/08/13 05:04:43;;;;;;;;;;;;;;;33.52;24.83;97160.88;6224177;28;20514;-65
2022/08/13 05:07:51;;;;;;;;;;;;;;;36.39;21.97;97165.72;6224106;28;20016;-66
2022/08/13 05:10:53;;;;;;;;;;;;;;;38.44;19.69;97157.03;6223670;28;20413;-66
2022/08/13 05:13:57;;;;;;;;;;;;;;;39.84;18.90;97156.75;6223795;28;19925;-65
2022/08/13 05:17:07;;;;;;;;;;;;;;;41.32;16.88;97158.59;6224258;28;19929;-66
2022/08/13 05:20:14;;;;;;;;;;;;;;;42.62;15.75;97141.03;6223847;28;19925;-66
2022/08/13 05:23:18;;;;;;;;;;;;;;;43.62;14.52;97141.56;6223491;28;19930;-66
2022/08/13 05:26:25;;;;;;;;;;;;;;;44.74;12.36;97145.91;6223213;28;19930;-65
2022/08/13 05:29:26;;;;;;;;;;;;;;;46.12;14.43;97147.84;6223354;28;20790;-66
2022/08/13 05:32:30;;;;;;;;;;;;;;;47.40;12.16;97140.97;6223635;28;19925;-66
2022/08/13 05:35:32;;;;;;;;;;;;;;;47.88;12.61;97134.28;6223486;28;20003;-66
2022/08/13 05:38:35;;;;;;;;;;;;;;;48.63;12.13;97142.03;6222713;28;19925;-66
2022/08/13 05:41:40;;;;;;;;;;;;;;;49.81;11.60;97135.88;6204786;28;19980;-65
2022/08/13 05:44:47;;;;;;;;;;;;;;;51.67;10.52;97126.59;6223342;28;19925;-65
2022/08/13 05:47:50;;;;;;;;;;;;;;;51.80;9.93;97127.28;6222423;28;20406;-65
2022/08/13 05:50:51;;;;;;;;;;;;;;;51.71;9.14;97123.88;6222367;28;20295;-65
2022/08/13 05:53:59;;;;;;;;;;;;;;;50.67;9.45;97121.00;6223343;28;19926;-65
2022/08/13 05:57:00;;;;;;;;;;;;;;;51.21;9.72;97120.53;6222970;28;19932;-65
2022/08/13 06:03:27;;;;;;;;;;;;;;;52.18;8.58;97120.19;6222768;28;19934;-65
2022/08/13 06:06:32;;;;;;;;;;;;;;;52.06;7.23;97105.09;6222833;28;19925;-65
2022/08/13 06:09:35;;;;;;;;;;;;;;;51.86;8.16;97114.63;6204609;28;19940;-65
2022/08/13 06:12:41;;;;;;;;;;;;;;;52.09;8.15;97100.75;6222588;28;19925;-65
2022/08/13 06:15:43;;;;;;;;;;;;;;;52.71;7.74;97104.53;6222756;28;19926;-65
2022/08/13 06:18:46;;;;;;;;;;;;;;;53.23;7.81;97102.34;6221845;28;19926;-65
2022/08/13 06:21:50;;;;;;;;;;;;;;;53.86;7.27;97094.59;6222866;28;20346;-65
2022/08/13 06:24:52;;;;;;;;;;;;;;;53.84;7.21;97103.41;6222513;28;19925;-66
2022/08/13 06:28:04;;;;;;;;;;;;;;;54.11;7.18;97101.44;6222183;28;20403;-65
2022/08/13 06:31:08;;;;;;;;;;;;;;;53.59;6.83;97088.91;6222282;28;19925;-64
2022/08/13 06:34:10;;;;;;;;;;;;;;;52.63;7.12;97096.31;6221740;28;19925;-65
2022/08/13 06:37:11;;;;;;;;;;;;;;;52.06;7.38;97074.22;6222021;28;19996;-65
2022/08/13 06:40:15;;;;;;;;;;;;;;;51.84;7.52;97083.31;6221754;28;20016;-65
2022/08/13 06:43:19;;;;;;;;;;;;;;;51.85;7.36;97073.72;6222098;28;20398;-66
2022/08/13 06:46:22;;;;;;;;;;;;;;;51.96;7.47;97068.34;6221545;28;19932;-66
2022/08/13 06:49:24;;;;;;;;;;;;;;;52.89;7.04;97074.00;6221255;28;19926;-65
2022/08/13 06:52:27;;;;;;;;;;;;;;;53.20;6.68;97075.00;6221893;28;20382;-65
2022/08/13 06:55:29;;;;;;;;;;;;;;;52.59;7.30;97061.72;6221914;28;20011;-65
2022/08/13 06:58:34;;;;;;;;;;;;;;;51.92;7.34;97067.44;6221870;28;19925;-65
2022/08/13 07:01:39;;;;;;;;;;;;;;;51.00;7.74;97055.50;6221969;28;20403;-65
2022/08/13 07:04:46;;;;;;;;;;;;;;;51.44;7.78;97047.84;6220567;28;19925;-66
2022/08/13 07:07:50;;;;;;;;;;;;;;;52.25;7.60;97053.78;6202561;28;19932;-65
2022/08/13 07:14:13;;;;;;;;;;;;;;;52.51;7.22;97049.53;6220976;28;19929;-65
2022/08/13 07:17:20;;;;;;;;;;;;;;;52.69;7.04;97044.31;6221599;28;19933;-64
2022/08/13 07:20:22;;;;;;;;;;;;;;;52.70;6.77;97045.94;6221142;28;20379;-65
2022/08/13 07:23:23;;;;;;;;;;;;;;;52.53;7.35;97042.34;6220213;28;20610;-65
2022/08/13 07:26:28;;;;;;;;;;;;;;;52.85;6.63;97042.19;6220873;28;19926;-65
2022/08/13 07:29:32;;;;;;;;;;;;;;;52.47;6.70;97035.41;6221362;28;19925;-65
2022/08/13 07:32:37;;;;;;;;;;;;;;;52.80;6.29;97031.25;6221288;28;19921;-65
2022/08/13 07:35:38;;;;;;;;;;;;;;;51.93;7.04;97030.59;6220424;28;19988;-66
2022/08/13 07:38:42;;;;;;;;;;;;;;;51.64;7.31;97021.50;6221222;28;19925;-65
2022/08/13 07:41:46;;;;;;;;;;;;;;;51.83;7.21;97020.75;6221328;28;20557;-64
2022/08/13 07:44:52;;;;;;;;;;;;;;;52.02;6.97;97017.19;6221074;28;20019;-65
2022/08/13 07:47:57;;;;;;;;;;;;;;;52.22;6.68;97025.63;6221299;28;19925;-65
2022/08/13 07:51:01;;;;;;;;;;;;;;;52.20;6.99;97017.56;6224791;28;19925;-65
2022/08/13 07:54:07;;;;;;;;;;;;;;;52.40;6.85;97031.66;6226332;28;20397;-65
2022/08/13 07:57:13;;;;;;;;;;;;;;;53.27;6.34;97024.50;6225874;28;19921;-64
2022/08/13 08:00:26;;;;;;;;;;;;;;;53.80;6.54;97024.56;6225885;28;20411;-65
2022/08/13 08:03:30;;;;;;;;;;;;;;;54.65;6.37;97017.69;6225707;28;19922;-65
2022/08/13 08:06:33;;;;;;;;;;;;;;;54.69;5.46;97010.88;6224709;28;19926;-65
2022/08/13 08:09:37;;;;;;;;;;;;;;;53.14;6.35;97014.63;6225945;28;19968;-65
2022/08/13 08:12:41;;;;;;;;;;;;;;;52.76;6.47;97010.72;6225750;28;19926;-66
2022/08/13 08:15:43;;;;;;;;;;;;;;;52.76;6.51;97007.91;6224982;28;19925;-67
2022/08/13 08:18:45;;;;;;;;;;;;;;;52.69;6.72;97005.78;6225663;28;19925;-65
2022/08/13 08:21:47;;;;;;;;;;;;;;;52.01;6.65;97004.38;6224811;28;20422;-65
2022/08/13 08:24:50;;;;;;;;;;;;;;;51.35;7.19;96991.16;6224679;28;20284;-68
2022/08/13 08:27:51;;;;;;;;;;;;;;;51.73;6.96;96987.69;6224549;28;19925;-65
2022/08/13 08:30:56;;;;;;;;;;;;;;;51.82;7.01;96981.84;6225097;28;19925;-65
2022/08/13 08:34:02;;;;;;;;;;;;;;;51.12;7.38;96980.56;6224979;28;19926;-66
2022/08/13 08:37:06;;;;;;;;;;;;;;;51.75;7.17;96990.09;6225334;28;19925;-65
2022/08/13 08:43:34;;;;;;;;;;;;;;;51.55;7.11;96978.00;6224009;28;20279;-65
2022/08/13 08:46:38;;;;;;;;;;;;;;;51.87;6.73;96978.78;6224812;28;20398;-65
2022/08/13 08:49:40;;;;;;;;;;;;;;;50.27;7.47;96985.41;6223889;28;19926;-64
2022/08/13 08:56:08;;;;;;;;;;;;;;;49.19;7.99;96960.84;6224700;28;19921;-65
2022/08/13 08:59:12;;;;;;;;;;;;;;;48.17;8.35;96970.81;6205344;28;19926;-65
2022/08/13 09:02:17;;;;;;;;;;;;;;;47.67;8.72;96950.97;6223349;28;20403;-65
2022/08/13 09:05:21;;;;;;;;;;;;;;;47.76;8.70;96953.72;6223448;28;19929;-65
2022/08/13 09:08:26;;;;;;;;;;;;;;;47.86;8.50;96958.09;6224131;28;19925;-65
2022/08/13 09:11:36;;;;;;;;;;;;;;;47.88;8.74;96944.63;6223242;28;19921;-65
2022/08/13 09:14:43;;;;;;;;;;;;;;;47.68;8.70;96941.47;6224240;28;19945;-65
2022/08/13 09:17:45;;;;;;;;;;;;;;;47.26;9.04;96945.31;6223255;28;19976;-65
2022/08/13 09:20:49;;;;;;;;;;;;;;;46.88;9.38;96948.91;6224319;28;19925;-66
2022/08/13 09:23:52;;;;;;;;;;;;;;;46.44;9.46;96939.84;6223476;28;19928;-65
2022/08/13 09:26:56;;;;;;;;;;;;;;;46.20;9.57;96932.81;6223922;28;20307;-64
2022/08/13 09:30:02;;;;;;;;;;;;;;;46.60;9.46;96940.97;6223886;28;19925;-65
2022/08/13 09:33:06;;;;;;;;;;;;;;;46.25;9.46;96938.22;6222912;28;19988;-64
2022/08/13 09:36:09;;;;;;;;;;;;;;;45.70;9.92;96936.09;6223096;28;19932;-65
2022/08/13 09:39:21;;;;;;;;;;;;;;;46.26;9.64;96939.03;6223234;28;20323;-64
2022/08/13 09:42:26;;;;;;;;;;;;;;;46.85;9.45;96936.47;6222661;28;20423;-64
2022/08/13 09:45:30;;;;;;;;;;;;;;;46.49;9.80;96945.25;6223160;28;19926;-64
2022/08/13 09:48:33;;;;;;;;;;;;;;;45.87;9.84;96936.09;6223456;28;19925;-64
2022/08/13 09:51:35;;;;;;;;;;;;;;;46.44;9.41;96931.50;6222583;28;19925;-65
2022/08/13 09:54:41;;;;;;;;;;;;;;;46.15;9.68;96935.78;6223429;28;20407;-65
2022/08/13 09:57:49;;;;;;;;;;;;;;;45.66;10.01;96927.56;6222941;28;20529;-65
2022/08/13 10:00:54;;;;;;;;;;;;;;;46.03;10.15;96938.41;6222961;28;19986;-65
2022/08/13 10:03:57;;;;;;;;;;;;;;;45.96;10.09;96932.53;6222997;28;19925;-65
2022/08/13 10:07:00;;;;;;;;;;;;;;;46.51;9.79;96929.03;6222179;28;19940;-65
2022/08/13 10:10:04;;;;;;;;;;;;;;;47.34;9.30;96924.97;6222912;28;19930;-65
2022/08/13 10:13:05;;;;;;;;;;;;;;;47.59;9.14;96920.38;6222182;28;19926;-65
2022/08/13 10:16:10;;;;;;;;;;;;;;;46.80;10.20;96923.56;6222823;28;19929;-65
2022/08/13 10:19:15;;;;;;;;;;;;;;;45.68;10.64;96921.69;6223211;28;19925;-65
2022/08/13 10:22:19;;;;;;;;;;;;;;;45.16;10.71;96916.03;6222589;28;20027;-65
2022/08/13 10:25:21;;;;;;;;;;;;;;;44.55;10.92;96908.22;6222457;28;19925;-65
2022/08/13 10:28:26;;;;;;;;;;;;;;;43.22;11.85;96905.00;6222177;28;20020;-64
2022/08/13 10:31:32;;;;;;;;;;;;;;;41.57;12.87;96897.91;6222338;28;19921;-64
2022/08/13 10:34:33;;;;;;;;;;;;;;;41.14;12.94;96888.81;6221759;28;19931;-65
2022/08/13 10:37:42;;;;;;;;;;;;;;;41.29;12.86;96894.94;6221767;28;19925;-65
2022/08/13 10:40:46;;;;;;;;;;;;;;;40.75;13.11;96901.66;6222434;28;20023;-64
2022/08/13 10:43:48;;;;;;;;;;;;;;;39.88;13.89;96907.13;6221478;28;20372;-64
2022/08/13 10:46:54;;;;;;;;;;;;;;;39.47;14.10;96899.13;6221579;28;19941;-65
2022/08/13 10:50:00;;;;;;;;;;;;;;;39.48;14.44;96890.56;6221944;28;19925;-65
2022/08/13 10:53:03;;;;;;;;;;;;;;;39.37;14.57;96893.66;6221474;28;19925;-65
2022/08/13 10:56:08;;;;;;;;;;;;;;;39.08;14.83;96886.06;6221902;28;19925;-65
2022/08/13 10:59:12;;;;;;;;;;;;;;;38.61;15.48;96895.56;6221489;28;19932;-65
2022/08/13 11:02:15;;;;;;;;;;;;;;;38.13;15.48;96898.66;6221018;28;19925;-65
2022/08/13 11:05:25;;;;;;;;;;;;;;;38.12;15.66;96897.00;6221430;28;19925;-65
2022/08/13 11:08:31;;;;;;;;;;;;;;;38.62;15.49;96886.22;6221940;28;19921;-65
2022/08/13 11:11:34;;;;;;;;;;;;;;;38.52;15.49;96889.00;6221266;28;20048;-65
2022/08/13 11:14:41;;;;;;;;;;;;;;;38.33;15.60;96884.06;6221663;28;20276;-64
2022/08/13 11:17:48;;;;;;;;;;;;;;;38.14;15.42;96888.47;6221619;28;19933;-65
2022/08/13 11:21:07;;;;;;;;;;;;;;;37.22;16.16;96880.91;6220591;28;19932;-65
2022/08/13 11:24:11;;;;;;;;;;;;;;;36.86;16.55;96878.00;6220790;28;19925;-65
2022/08/13 11:27:15;;;;;;;;;;;;;;;37.83;16.17;96882.97;6220687;28;19925;-65
2022/08/13 11:30:21;;;;;;;;;;;;;;;38.13;16.23;96892.31;6221369;28;19925;-65
2022/08/13 11:33:24;;;;;;;;;;;;;;;37.69;16.97;96876.38;6220574;28;19932;-65
2022/08/13 11:36:28;;;;;;;;;;;;;;;37.22;17.48;96888.31;6221183;28;20410;-65
2022/08/13 11:39:31;;;;;;;;;;;;;;;36.23;18.19;96890.75;6221118;28;19925;-65
2022/08/13 11:42:33;;;;;;;;;;;;;;;35.39;18.74;96888.63;6220414;28;20413;-64
2022/08/13 11:45:34;;;;;;;;;;;;;;;35.27;19.21;96891.50;6219916;28;19925;-65
2022/08/13 11:48:39;;;;;;;;;;;;;;;34.87;19.66;96893.44;6221038;28;19926;-65
2022/08/13 11:51:41;;;;;;;;;;;;;;;34.58;20.14;96883.78;6220048;28;19925;-65
2022/08/13 11:54:44;;;;;;;;;;;;;;;34.20;20.54;96888.97;6220487;28;19933;-64
2022/08/13 11:57:48;;;;;;;;;;;;;;;34.17;20.77;96891.38;6220894;28;19957;-65
2022/08/13 12:00:49;;;;;;;;;;;;;;;34.10;20.70;96887.97;6220458;28;19925;-65
2022/08/13 12:03:50;;;;;;;;;;;;;;;33.99;20.95;96887.75;6220577;28;20010;-65
2022/08/13 12:06:51;;;;;;;;;;;;;;;33.97;21.41;96889.09;6220143;28;19977;-65
2022/08/13 12:09:55;;;;;;;;;;;;;;;33.68;21.52;96891.06;6220843;28;20406;-65
2022/08/13 12:12:58;;;;;;;;;;;;;;;33.49;21.94;96891.28;6220436;28;20012;-66
2022/08/13 12:15:59;;;;;;;;;;;;;;;33.41;21.85;96890.84;6220595;28;19925;-65
2022/08/13 12:19:03;;;;;;;;;;;;;;;33.46;22.09;96888.19;6220661;28;20307;-65
2022/08/13 12:22:06;;;;;;;;;;;;;;;33.41;22.11;96891.66;6220642;28;20339;-66
2022/08/13 12:25:08;;;;;;;;;;;;;;;33.24;22.09;96896.25;6219930;28;20051;-65
2022/08/13 12:28:11;;;;;;;;;;;;;;;33.36;22.24;96893.47;6220173;28;19931;-65
2022/08/13 12:31:17;;;;;;;;;;;;;;;33.33;22.29;96897.50;6219481;28;20315;-66
2022/08/13 12:34:18;;;;;;;;;;;;;;;33.17;22.54;96901.00;6219790;28;19933;-65
2022/08/13 12:37:22;;;;;;;;;;;;;;;32.83;22.47;96895.38;6222431;28;19932;-66
2022/08/13 12:40:28;;;;;;;;;;;;;;;32.76;23.24;96891.97;6225097;28;19970;-65
2022/08/13 12:43:32;;;;;;;;;;;;;;;32.59;23.91;96900.06;6224992;28;19949;-65
2022/08/13 12:46:35;;;;;;;;;;;;;;;32.23;23.72;96892.94;6224784;28;19925;-65
2022/08/13 12:49:37;;;;;;;;;;;;;;;32.07;24.12;96892.56;6224507;28;19964;-66
2022/08/13 12:52:45;;;;;;;;;;;;;;;32.15;24.68;96891.41;6224102;28;19926;-66
2022/08/13 12:55:51;;;;;;;;;;;;;;;32.03;24.32;96896.03;6224546;28;19925;-66
2022/08/13 12:58:52;;;;;;;;;;;;;;;32.02;24.71;96900.63;6223511;28;19925;-65
2022/08/13 13:01:53;;;;;;;;;;;;;;;31.83;25.10;96896.31;6224079;28;20417;-65
2022/08/13 13:04:54;;;;;;;;;;;;;;;31.70;24.83;96902.78;6223479;28;19925;-65
2022/08/13 13:07:55;;;;;;;;;;;;;;;31.20;25.95;96903.91;6224203;28;19932;-65
2022/08/13 13:11:03;;;;;;;;;;;;;;;30.44;26.41;96899.75;6223816;28;19931;-66
2022/08/13 13:14:04;;;;;;;;;;;;;;;30.17;26.87;96899.16;6223961;28;20028;-65
2022/08/13 13:17:06;;;;;;;;;;;;;;;30.09;27.49;96896.72;6223904;28;19925;-66
2022/08/13 13:20:10;;;;;;;;;;;;;;;29.59;27.73;96900.22;6223963;28;20308;-65
2022/08/13 13:23:12;;;;;;;;;;;;;;;29.25;28.49;96898.78;6223634;28;19932;-66
2022/08/13 13:26:13;;;;;;;;;;;;;;;29.10;28.70;96893.63;6223750;28;20493;-65
2022/08/13 13:29:14;;;;;;;;;;;;;;;28.83;29.16;96901.03;6223330;28;19950;-67
2022/08/13 13:32:16;;;;;;;;;;;;;;;28.70;29.42;96911.91;6223001;28;19929;-66
2022/08/13 13:35:17;;;;;;;;;;;;;;;28.63;29.67;96910.03;6223693;28;19929;-66
2022/08/13 13:38:21;;;;;;;;;;;;;;;28.35;30.22;96906.75;6223442;28;19926;-66
2022/08/13 13:41:24;;;;;;;;;;;;;;;28.31;30.69;96906.34;6222620;28;20024;-68
2022/08/13 13:44:28;;;;;;;;;;;;;;;28.19;30.74;96908.88;6222877;28;19928;-65
2022/08/13 13:47:32;;;;;;;;;;;;;;;27.94;31.18;96910.53;6221787;28;19925;-66
2022/08/13 13:50:36;;;;;;;;;;;;;;;27.91;30.95;96922.63;6223354;28;19925;-65
2022/08/13 13:53:41;;;;;;;;;;;;;;;27.63;31.38;96911.97;6222558;28;19948;-65
2022/08/13 13:56:44;;;;;;;;;;;;;;;27.50;32.00;96925.44;6223072;28;20028;-65
2022/08/13 13:59:47;;;;;;;;;;;;;;;27.70;31.83;96920.91;6223004;28;20391;-66
2022/08/13 14:02:53;;;;;;;;;;;;;;;27.62;32.16;96928.38;6222130;28;20051;-65
2022/08/13 14:05:58;;;;;;;;;;;;;;;27.59;31.50;96934.19;6221663;28;19925;-66
2022/08/13 14:09:01;;;;;;;;;;;;;;;27.29;32.03;96929.97;6222075;28;19925;-65
2022/08/13 14:12:03;;;;;;;;;;;;;;;27.06;32.46;96940.25;6221983;28;19936;-66
2022/08/13 14:15:07;;;;;;;;;;;;;;;27.00;33.03;96930.25;6223019;28;20299;-65
2022/08/13 14:18:16;;;;;;;;;;;;;;;26.96;32.64;96934.41;6222487;28;20297;-65
2022/08/13 14:21:21;;;;;;;;;;;;;;;26.76;33.29;96945.94;6221545;28;19925;-65
2022/08/13 14:24:28;;;;;;;;;;;;;;;26.54;33.68;96936.25;6222846;28;19976;-65
2022/08/13 14:27:31;;;;;;;;;;;;;;;26.51;33.46;96931.25;6222433;28;19948;-66
2022/08/13 14:30:35;;;;;;;;;;;;;;;26.36;33.99;96936.75;6222049;28;19925;-66
2022/08/13 14:33:39;;;;;;;;;;;;;;;26.22;33.79;96938.53;6221714;28;20310;-66
2022/08/13 14:36:40;;;;;;;;;;;;;;;26.22;34.06;96943.91;6221381;28;19925;-65
2022/08/13 14:39:46;;;;;;;;;;;;;;;26.02;34.67;96937.53;6222313;28;19925;-65
2022/08/13 14:42:55;;;;;;;;;;;;;;;25.88;35.13;96925.81;6221651;28;19957;-65
2022/08/13 14:45:59;;;;;;;;;;;;;;;25.68;35.04;96934.53;6222161;28;19926;-65
2022/08/13 14:49:03;;;;;;;;;;;;;;;25.57;35.28;96939.59;6221817;28;19935;-65
2022/08/13 14:52:04;;;;;;;;;;;;;;;25.40;35.36;96934.44;6220501;28;20288;-65
2022/08/13 14:55:08;;;;;;;;;;;;;;;25.29;35.91;96937.66;6221920;28;20406;-66
2022/08/13 14:58:09;;;;;;;;;;;;;;;25.17;36.16;96934.63;6220595;28;19925;-65
2022/08/13 15:01:13;;;;;;;;;;;;;;;24.97;36.22;96939.75;6220403;28;19925;-66
2022/08/13 15:04:19;;;;;;;;;;;;;;;24.88;36.38;96938.16;6204046;28;20221;-65
2022/08/13 15:07:21;;;;;;;;;;;;;;;24.72;36.97;96941.06;6220749;28;20319;-66
2022/08/13 15:10:27;;;;;;;;;;;;;;;24.59;37.28;96942.53;6221559;28;19926;-66
2022/08/13 15:13:40;;;;;;;;;;;;;;;24.44;37.46;96946.28;6205091;28;19925;-64
2022/08/13 15:16:45;;;;;;;;;;;;;;;24.31;37.74;96941.47;6221274;28;19925;-66
2022/08/13 15:19:52;;;;;;;;;;;;;;;24.22;37.80;96945.28;6203912;28;19933;-65
2022/08/13 15:22:53;;;;;;;;;;;;;;;24.12;38.55;96949.06;6220762;28;19932;-65
2022/08/13 15:25:54;;;;;;;;;;;;;;;23.94;38.51;96940.50;6170709;28;20399;-66
2022/08/13 15:29:03;;;;;;;;;;;;;;;23.80;38.66;96939.44;6221378;28;19925;-65
2022/08/13 15:32:09;;;;;;;;;;;;;;;23.67;39.18;96948.09;6221264;28;19925;-66
2022/08/13 15:35:13;;;;;;;;;;;;;;;23.51;38.86;96953.56;6220487;28;19948;-66
2022/08/13 15:38:23;;;;;;;;;;;;;;;23.43;39.62;96956.31;6221244;28;20399;-65
2022/08/13 15:41:29;;;;;;;;;;;;;;;23.26;39.43;96956.41;6221376;28;20053;-65
2022/08/13 15:44:30;;;;;;;;;;;;;;;23.16;39.38;96957.66;6221264;28;19932;-65
2022/08/13 15:47:33;;;;;;;;;;;;;;;23.05;39.50;96958.91;6220455;28;19925;-66
2022/08/13 15:50:38;;;;;;;;;;;;;;;22.98;40.18;96960.59;6221243;28;19925;-66
2022/08/13 15:53:39;;;;;;;;;;;;;;;22.90;40.13;96965.97;6221260;28;19936;-66
2022/08/13 15:56:45;;;;;;;;;;;;;;;22.81;40.27;96968.69;6221043;28;19926;-66
2022/08/13 15:59:46;;;;;;;;;;;;;;;22.70;40.79;96966.38;6220220;28;19926;-66
2022/08/13 16:02:51;;;;;;;;;;;;;;;22.59;41.16;96974.78;6220233;28;20075;-66
2022/08/13 16:05:58;;;;;;;;;;;;;;;22.48;41.33;96977.88;6220483;28;19925;-65
2022/08/13 16:09:02;;;;;;;;;;;;;;;22.36;41.72;96986.28;6220782;28;20392;-65
2022/08/13 16:12:06;;;;;;;;;;;;;;;22.31;41.88;96985.94;6223871;28;19925;-65
2022/08/13 16:15:10;;;;;;;;;;;;;;;22.31;42.70;96977.91;6225531;28;19929;-66
2022/08/13 16:18:16;;;;;;;;;;;;;;;22.20;42.76;96988.97;6224580;28;20030;-66
2022/08/13 16:21:40;;;;;;;;;;;;;;;22.15;42.93;96988.59;6222533;28;20011;-65